sensor_id;sensor_type;location;lat;lon;timestamp;temperature;humidity
20432;DHT22;10375;49.136;10.366;2023-06-14T00:02:02;13.20;84.20
20432;DHT22;10375;49.136;10.366;2023-06-14T00:04:30;13.10;84.50
20432;DHT22;10375;49.136;10.366;2023-06-14T00:06:58;13.20;84.90
20432;DHT22;10375;49.136;10.366;2023-06-14T00:09:25;13.10;85.50
20432;DHT22;10375;49.136;10.366;2023-06-14T00:11:52;13.00;86.00
20432;DHT22;10375;49.136;10.366;2023-06-14T00:14:19;12.80;86.00
20432;DHT22;10375;49.136;10.366;2023-06-14T00:16:47;12.80;86.80
20432;DHT22;10375;49.136;10.366;2023-06-14T00:19:14;12.70;86.80
20432;DHT22;10375;49.136;10.366;2023-06-14T00:21:43;12.70;86.50
20432;DHT22;10375;49.136;10.366;2023-06-14T00:24:11;12.70;86.70
20432;DHT22;10375;49.136;10.366;2023-06-14T00:26:38;12.60;87.20
20432;DHT22;10375;49.136;10.366;2023-06-14T00:29:05;12.50;87.20
20432;DHT22;10375;49.136;10.366;2023-06-14T00:31:32;12.50;87.80
20432;DHT22;10375;49.136;10.366;2023-06-14T00:34:00;12.50;87.90
20432;DHT22;10375;49.136;10.366;2023-06-14T00:36:28;12.50;87.80
20432;DHT22;10375;49.136;10.366;2023-06-14T00:38:55;12.40;88.60
20432;DHT22;10375;49.136;10.366;2023-06-14T00:41:24;12.30;88.90
20432;DHT22;10375;49.136;10.366;2023-06-14T00:43:51;12.30;89.80
20432;DHT22;10375;49.136;10.366;2023-06-14T00:46:19;12.20;89.70
20432;DHT22;10375;49.136;10.366;2023-06-14T00:48:47;12.10;90.00
20432;DHT22;10375;49.136;10.366;2023-06-14T00:51:15;12.00;89.50
20432;DHT22;10375;49.136;10.366;2023-06-14T00:53:42;11.90;89.10
20432;DHT22;10375;49.136;10.366;2023-06-14T00:56:14;11.90;89.00
20432;DHT22;10375;49.136;10.366;2023-06-14T00:58:42;11.90;89.80
20432;DHT22;10375;49.136;10.366;2023-06-14T01:01:10;11.90;90.10
20432;DHT22;10375;49.136;10.366;2023-06-14T01:03:38;11.80;90.20
20432;DHT22;10375;49.136;10.366;2023-06-14T01:06:19;11.80;90.30
20432;DHT22;10375;49.136;10.366;2023-06-14T01:09:03;11.70;90.10
20432;DHT22;10375;49.136;10.366;2023-06-14T01:11:40;11.70;90.10
20432;DHT22;10375;49.136;10.366;2023-06-14T01:14:10;11.70;90.20
20432;DHT22;10375;49.136;10.366;2023-06-14T01:16:39;11.80;90.20
20432;DHT22;10375;49.136;10.366;2023-06-14T01:19:10;11.70;90.30
20432;DHT22;10375;49.136;10.366;2023-06-14T01:21:40;11.70;90.30
20432;DHT22;10375;49.136;10.366;2023-06-14T01:24:09;11.60;90.10
20432;DHT22;10375;49.136;10.366;2023-06-14T01:26:38;11.60;90.40
20432;DHT22;10375;49.136;10.366;2023-06-14T01:29:14;11.60;90.30
20432;DHT22;10375;49.136;10.366;2023-06-14T01:31:46;11.60;90.70
20432;DHT22;10375;49.136;10.366;2023-06-14T01:34:14;11.50;91.00
20432;DHT22;10375;49.136;10.366;2023-06-14T01:36:43;11.40;91.00
20432;DHT22;10375;49.136;10.366;2023-06-14T01:39:15;11.40;91.20
20432;DHT22;10375;49.136;10.366;2023-06-14T01:41:43;11.40;91.20
20432;DHT22;10375;49.136;10.366;2023-06-14T01:44:14;11.30;91.10
20432;DHT22;10375;49.136;10.366;2023-06-14T01:46:42;11.40;91.30
20432;DHT22;10375;49.136;10.366;2023-06-14T01:49:11;11.40;91.40
20432;DHT22;10375;49.136;10.366;2023-06-14T01:51:38;11.30;91.40
20432;DHT22;10375;49.136;10.366;2023-06-14T01:54:06;11.40;91.50
20432;DHT22;10375;49.136;10.366;2023-06-14T01:56:34;11.30;91.70
20432;DHT22;10375;49.136;10.366;2023-06-14T01:59:01;11.20;91.90
20432;DHT22;10375;49.136;10.366;2023-06-14T02:01:28;11.20;91.90
20432;DHT22;10375;49.136;10.366;2023-06-14T02:03:56;11.10;92.10
20432;DHT22;10375;49.136;10.366;2023-06-14T02:06:24;11.10;92.30
20432;DHT22;10375;49.136;10.366;2023-06-14T02:08:53;11.10;92.40
20432;DHT22;10375;49.136;10.366;2023-06-14T02:11:21;11.10;92.30
20432;DHT22;10375;49.136;10.366;2023-06-14T02:13:48;11.00;92.60
20432;DHT22;10375;49.136;10.366;2023-06-14T02:16:15;11.00;93.00
20432;DHT22;10375;49.136;10.366;2023-06-14T02:18:45;11.00;92.80
20432;DHT22;10375;49.136;10.366;2023-06-14T02:21:13;11.00;93.00
20432;DHT22;10375;49.136;10.366;2023-06-14T02:23:40;11.00;92.80
20432;DHT22;10375;49.136;10.366;2023-06-14T02:26:08;10.90;92.90
20432;DHT22;10375;49.136;10.366;2023-06-14T02:28:35;10.90;92.80
20432;DHT22;10375;49.136;10.366;2023-06-14T02:31:03;10.90;92.70
20432;DHT22;10375;49.136;10.366;2023-06-14T02:33:30;10.90;92.70
20432;DHT22;10375;49.136;10.366;2023-06-14T02:35:57;10.90;92.60
20432;DHT22;10375;49.136;10.366;2023-06-14T02:38:25;10.80;92.50
20432;DHT22;10375;49.136;10.366;2023-06-14T02:40:53;10.80;92.60
20432;DHT22;10375;49.136;10.366;2023-06-14T02:43:20;10.70;93.10
20432;DHT22;10375;49.136;10.366;2023-06-14T02:45:48;10.60;93.40
20432;DHT22;10375;49.136;10.366;2023-06-14T02:48:16;10.60;93.50
20432;DHT22;10375;49.136;10.366;2023-06-14T02:50:43;10.70;93.40
20432;DHT22;10375;49.136;10.366;2023-06-14T02:53:10;10.70;93.50
20432;DHT22;10375;49.136;10.366;2023-06-14T02:55:39;10.60;93.60
20432;DHT22;10375;49.136;10.366;2023-06-14T02:58:07;10.60;93.40
20432;DHT22;10375;49.136;10.366;2023-06-14T03:00:34;10.60;93.10
20432;DHT22;10375;49.136;10.366;2023-06-14T03:03:03;10.50;93.30
20432;DHT22;10375;49.136;10.366;2023-06-14T03:05:31;10.40;93.40
20432;DHT22;10375;49.136;10.366;2023-06-14T03:07:59;10.40;93.40
20432;DHT22;10375;49.136;10.366;2023-06-14T03:10:27;10.30;93.60
20432;DHT22;10375;49.136;10.366;2023-06-14T03:12:56;10.30;93.70
20432;DHT22;10375;49.136;10.366;2023-06-14T03:15:23;10.20;94.00
20432;DHT22;10375;49.136;10.366;2023-06-14T03:17:51;10.20;94.10
20432;DHT22;10375;49.136;10.366;2023-06-14T03:20:21;10.20;94.10
20432;DHT22;10375;49.136;10.366;2023-06-14T03:22:48;10.20;94.20
20432;DHT22;10375;49.136;10.366;2023-06-14T03:25:16;10.20;94.20
20432;DHT22;10375;49.136;10.366;2023-06-14T03:27:43;10.20;94.40
20432;DHT22;10375;49.136;10.366;2023-06-14T03:30:11;10.30;94.20
20432;DHT22;10375;49.136;10.366;2023-06-14T03:32:39;10.30;94.20
20432;DHT22;10375;49.136;10.366;2023-06-14T03:35:06;10.30;94.40
20432;DHT22;10375;49.136;10.366;2023-06-14T03:37:33;10.20;94.40
20432;DHT22;10375;49.136;10.366;2023-06-14T03:40:01;10.20;94.50
20432;DHT22;10375;49.136;10.366;2023-06-14T03:42:32;10.30;94.70
20432;DHT22;10375;49.136;10.366;2023-06-14T03:45:00;10.40;94.70
20432;DHT22;10375;49.136;10.366;2023-06-14T03:47:27;10.40;94.50
20432;DHT22;10375;49.136;10.366;2023-06-14T03:49:54;10.50;94.40
20432;DHT22;10375;49.136;10.366;2023-06-14T03:52:21;10.60;94.40
20432;DHT22;10375;49.136;10.366;2023-06-14T03:54:51;10.60;94.40
20432;DHT22;10375;49.136;10.366;2023-06-14T03:57:23;10.60;94.50
20432;DHT22;10375;49.136;10.366;2023-06-14T03:59:50;10.60;94.40
20432;DHT22;10375;49.136;10.366;2023-06-14T04:02:17;10.60;94.50
20432;DHT22;10375;49.136;10.366;2023-06-14T04:04:45;10.60;94.50
20432;DHT22;10375;49.136;10.366;2023-06-14T04:07:12;10.60;94.60
20432;DHT22;10375;49.136;10.366;2023-06-14T04:09:40;10.70;94.70
20432;DHT22;10375;49.136;10.366;2023-06-14T04:12:08;10.70;94.80
20432;DHT22;10375;49.136;10.366;2023-06-14T04:14:35;10.80;94.70
20432;DHT22;10375;49.136;10.366;2023-06-14T04:17:03;10.80;94.60
20432;DHT22;10375;49.136;10.366;2023-06-14T04:19:31;11.00;94.40
20432;DHT22;10375;49.136;10.366;2023-06-14T04:21:58;11.10;94.40
20432;DHT22;10375;49.136;10.366;2023-06-14T04:24:28;11.20;94.20
20432;DHT22;10375;49.136;10.366;2023-06-14T04:26:59;11.30;94.10
20432;DHT22;10375;49.136;10.366;2023-06-14T04:29:28;11.40;94.00
20432;DHT22;10375;49.136;10.366;2023-06-14T04:31:56;11.50;94.40
20432;DHT22;10375;49.136;10.366;2023-06-14T04:34:28;11.50;94.10
20432;DHT22;10375;49.136;10.366;2023-06-14T04:36:56;11.60;94.10
20432;DHT22;10375;49.136;10.366;2023-06-14T04:39:25;11.70;94.10
20432;DHT22;10375;49.136;10.366;2023-06-14T04:41:54;11.80;94.10
20432;DHT22;10375;49.136;10.366;2023-06-14T04:44:24;11.90;94.20
20432;DHT22;10375;49.136;10.366;2023-06-14T04:46:57;12.00;94.20
20432;DHT22;10375;49.136;10.366;2023-06-14T04:49:25;12.10;94.00
20432;DHT22;10375;49.136;10.366;2023-06-14T04:51:56;12.30;94.20
20432;DHT22;10375;49.136;10.366;2023-06-14T04:54:26;12.50;94.00
20432;DHT22;10375;49.136;10.366;2023-06-14T04:56:53;12.70;94.00
20432;DHT22;10375;49.136;10.366;2023-06-14T04:59:22;12.90;94.00
20432;DHT22;10375;49.136;10.366;2023-06-14T05:01:50;13.10;93.50
20432;DHT22;10375;49.136;10.366;2023-06-14T05:04:19;13.30;93.70
20432;DHT22;10375;49.136;10.366;2023-06-14T05:06:46;14.60;93.50
20432;DHT22;10375;49.136;10.366;2023-06-14T05:09:16;17.50;89.70
20432;DHT22;10375;49.136;10.366;2023-06-14T05:11:43;20.70;78.50
20432;DHT22;10375;49.136;10.366;2023-06-14T05:14:12;23.30;69.20
20432;DHT22;10375;49.136;10.366;2023-06-14T05:16:40;25.40;62.80
20432;DHT22;10375;49.136;10.366;2023-06-14T05:19:07;27.00;57.60
20432;DHT22;10375;49.136;10.366;2023-06-14T05:21:34;28.40;55.50
20432;DHT22;10375;49.136;10.366;2023-06-14T05:24:09;29.60;51.40
20432;DHT22;10375;49.136;10.366;2023-06-14T05:26:37;30.30;50.50
20432;DHT22;10375;49.136;10.366;2023-06-14T05:29:04;31.00;48.80
20432;DHT22;10375;49.136;10.366;2023-06-14T05:31:31;31.10;48.00
20432;DHT22;10375;49.136;10.366;2023-06-14T05:33:58;31.30;47.20
20432;DHT22;10375;49.136;10.366;2023-06-14T05:36:26;31.50;46.50
20432;DHT22;10375;49.136;10.366;2023-06-14T05:38:55;31.50;47.10
20432;DHT22;10375;49.136;10.366;2023-06-14T05:41:27;31.70;46.30
20432;DHT22;10375;49.136;10.366;2023-06-14T05:43:55;32.00;46.40
20432;DHT22;10375;49.136;10.366;2023-06-14T05:46:23;31.90;45.70
20432;DHT22;10375;49.136;10.366;2023-06-14T05:48:55;31.70;45.30
20432;DHT22;10375;49.136;10.366;2023-06-14T05:51:23;31.20;47.00
20432;DHT22;10375;49.136;10.366;2023-06-14T05:53:52;31.60;46.10
20432;DHT22;10375;49.136;10.366;2023-06-14T05:56:20;31.90;46.20
20432;DHT22;10375;49.136;10.366;2023-06-14T05:58:47;32.10;45.80
20432;DHT22;10375;49.136;10.366;2023-06-14T06:01:15;32.30;45.40
20432;DHT22;10375;49.136;10.366;2023-06-14T06:03:42;32.40;45.00
20432;DHT22;10375;49.136;10.366;2023-06-14T06:06:13;32.80;45.70
20432;DHT22;10375;49.136;10.366;2023-06-14T06:08:41;33.00;45.00
20432;DHT22;10375;49.136;10.366;2023-06-14T06:11:08;32.90;45.50
20432;DHT22;10375;49.136;10.366;2023-06-14T06:13:35;33.60;44.50
20432;DHT22;10375;49.136;10.366;2023-06-14T06:16:03;34.00;43.50
20432;DHT22;10375;49.136;10.366;2023-06-14T06:18:30;33.40;44.80
20432;DHT22;10375;49.136;10.366;2023-06-14T06:20:57;33.90;44.10
20432;DHT22;10375;49.136;10.366;2023-06-14T06:23:24;34.00;44.10
20432;DHT22;10375;49.136;10.366;2023-06-14T06:25:52;33.10;43.20
20432;DHT22;10375;49.136;10.366;2023-06-14T06:28:19;32.60;44.70
20432;DHT22;10375;49.136;10.366;2023-06-14T06:30:47;31.70;45.50
20432;DHT22;10375;49.136;10.366;2023-06-14T06:33:14;31.50;46.70
20432;DHT22;10375;49.136;10.366;2023-06-14T06:35:42;31.50;45.60
20432;DHT22;10375;49.136;10.366;2023-06-14T06:38:09;31.20;47.10
20432;DHT22;10375;49.136;10.366;2023-06-14T06:40:37;31.40;47.10
20432;DHT22;10375;49.136;10.366;2023-06-14T06:43:05;31.30;46.90
20432;DHT22;10375;49.136;10.366;2023-06-14T06:45:32;31.30;46.50
20432;DHT22;10375;49.136;10.366;2023-06-14T06:47:59;31.30;46.80
20432;DHT22;10375;49.136;10.366;2023-06-14T06:50:27;31.20;47.30
20432;DHT22;10375;49.136;10.366;2023-06-14T06:52:55;30.80;46.10
20432;DHT22;10375;49.136;10.366;2023-06-14T06:55:22;30.20;47.50
20432;DHT22;10375;49.136;10.366;2023-06-14T06:57:49;30.20;48.30
20432;DHT22;10375;49.136;10.366;2023-06-14T07:00:20;30.00;48.70
20432;DHT22;10375;49.136;10.366;2023-06-14T07:02:47;30.60;48.90
20432;DHT22;10375;49.136;10.366;2023-06-14T07:05:15;31.90;46.40
20432;DHT22;10375;49.136;10.366;2023-06-14T07:07:43;32.00;47.50
20432;DHT22;10375;49.136;10.366;2023-06-14T07:10:10;30.70;47.90
20432;DHT22;10375;49.136;10.366;2023-06-14T07:12:37;31.10;47.70
20432;DHT22;10375;49.136;10.366;2023-06-14T07:15:07;31.50;47.40
20432;DHT22;10375;49.136;10.366;2023-06-14T07:17:35;31.60;44.80
20432;DHT22;10375;49.136;10.366;2023-06-14T07:20:03;29.90;47.30
20432;DHT22;10375;49.136;10.366;2023-06-14T07:22:51;29.60;48.10
20432;DHT22;10375;49.136;10.366;2023-06-14T07:25:18;29.50;48.60
20432;DHT22;10375;49.136;10.366;2023-06-14T07:27:47;29.10;48.50
20432;DHT22;10375;49.136;10.366;2023-06-14T07:30:14;28.70;50.20
20432;DHT22;10375;49.136;10.366;2023-06-14T07:32:41;29.70;49.70
20432;DHT22;10375;49.136;10.366;2023-06-14T07:35:09;31.20;46.70
20432;DHT22;10375;49.136;10.366;2023-06-14T07:37:36;31.80;45.70
20432;DHT22;10375;49.136;10.366;2023-06-14T07:40:04;31.80;46.30
20432;DHT22;10375;49.136;10.366;2023-06-14T07:42:34;32.30;45.10
20432;DHT22;10375;49.136;10.366;2023-06-14T07:45:03;31.50;45.50
20432;DHT22;10375;49.136;10.366;2023-06-14T07:47:31;29.20;48.30
20432;DHT22;10375;49.136;10.366;2023-06-14T07:49:59;28.00;50.40
20432;DHT22;10375;49.136;10.366;2023-06-14T07:52:26;27.00;51.50
20432;DHT22;10375;49.136;10.366;2023-06-14T07:54:53;26.60;50.90
20432;DHT22;10375;49.136;10.366;2023-06-14T07:57:21;25.40;52.60
20432;DHT22;10375;49.136;10.366;2023-06-14T07:59:48;24.60;55.00
20432;DHT22;10375;49.136;10.366;2023-06-14T08:02:15;24.30;55.20
20432;DHT22;10375;49.136;10.366;2023-06-14T08:04:42;24.40;55.20
20432;DHT22;10375;49.136;10.366;2023-06-14T08:07:09;24.50;56.80
20432;DHT22;10375;49.136;10.366;2023-06-14T08:09:36;24.60;55.30
20432;DHT22;10375;49.136;10.366;2023-06-14T08:12:07;24.90;54.40
20432;DHT22;10375;49.136;10.366;2023-06-14T08:14:36;25.40;53.80
20432;DHT22;10375;49.136;10.366;2023-06-14T08:17:04;25.00;52.60
20432;DHT22;10375;49.136;10.366;2023-06-14T08:19:31;24.30;54.90
20432;DHT22;10375;49.136;10.366;2023-06-14T08:21:58;24.50;52.90
20432;DHT22;10375;49.136;10.366;2023-06-14T08:24:26;25.00;52.20
20432;DHT22;10375;49.136;10.366;2023-06-14T08:26:54;25.50;51.80
20432;DHT22;10375;49.136;10.366;2023-06-14T08:29:21;25.30;51.90
20432;DHT22;10375;49.136;10.366;2023-06-14T08:31:48;25.20;52.70
20432;DHT22;10375;49.136;10.366;2023-06-14T08:34:15;24.90;53.60
20432;DHT22;10375;49.136;10.366;2023-06-14T08:36:42;24.90;52.30
20432;DHT22;10375;49.136;10.366;2023-06-14T08:39:09;24.80;53.10
20432;DHT22;10375;49.136;10.366;2023-06-14T08:41:36;25.20;52.70
20432;DHT22;10375;49.136;10.366;2023-06-14T08:44:04;25.50;53.50
20432;DHT22;10375;49.136;10.366;2023-06-14T08:46:32;24.60;52.50
20432;DHT22;10375;49.136;10.366;2023-06-14T08:49:02;24.20;53.70
20432;DHT22;10375;49.136;10.366;2023-06-14T08:51:31;24.60;54.80
20432;DHT22;10375;49.136;10.366;2023-06-14T08:54:03;24.80;53.30
20432;DHT22;10375;49.136;10.366;2023-06-14T08:56:31;24.60;55.40
20432;DHT22;10375;49.136;10.366;2023-06-14T08:59:01;24.50;56.00
20432;DHT22;10375;49.136;10.366;2023-06-14T09:01:37;24.60;54.40
20432;DHT22;10375;49.136;10.366;2023-06-14T09:04:04;24.80;54.10
20432;DHT22;10375;49.136;10.366;2023-06-14T09:06:35;25.10;53.50
20432;DHT22;10375;49.136;10.366;2023-06-14T09:09:03;25.50;53.50
20432;DHT22;10375;49.136;10.366;2023-06-14T09:11:31;25.50;52.80
20432;DHT22;10375;49.136;10.366;2023-06-14T09:13:58;25.80;52.80
20432;DHT22;10375;49.136;10.366;2023-06-14T09:16:25;26.20;52.30
20432;DHT22;10375;49.136;10.366;2023-06-14T09:18:54;26.10;50.70
20432;DHT22;10375;49.136;10.366;2023-06-14T09:21:22;26.00;53.30
20432;DHT22;10375;49.136;10.366;2023-06-14T09:23:49;26.20;51.00
20432;DHT22;10375;49.136;10.366;2023-06-14T09:26:18;25.80;50.80
20432;DHT22;10375;49.136;10.366;2023-06-14T09:28:50;25.20;51.80
20432;DHT22;10375;49.136;10.366;2023-06-14T09:31:19;24.70;52.80
20432;DHT22;10375;49.136;10.366;2023-06-14T09:33:48;24.60;53.00
20432;DHT22;10375;49.136;10.366;2023-06-14T09:36:18;24.80;53.60
20432;DHT22;10375;49.136;10.366;2023-06-14T09:38:56;25.20;52.90
20432;DHT22;10375;49.136;10.366;2023-06-14T09:41:39;25.50;51.20
20432;DHT22;10375;49.136;10.366;2023-06-14T09:44:08;25.80;50.80
20432;DHT22;10375;49.136;10.366;2023-06-14T09:46:41;25.90;50.80
20432;DHT22;10375;49.136;10.366;2023-06-14T09:49:08;25.30;51.80
20432;DHT22;10375;49.136;10.366;2023-06-14T09:51:42;25.70;51.90
20432;DHT22;10375;49.136;10.366;2023-06-14T09:54:19;26.50;49.40
20432;DHT22;10375;49.136;10.366;2023-06-14T09:56:48;27.40;50.10
20432;DHT22;10375;49.136;10.366;2023-06-14T09:59:26;27.60;47.90
20432;DHT22;10375;49.136;10.366;2023-06-14T10:01:58;27.00;47.80
20432;DHT22;10375;49.136;10.366;2023-06-14T10:04:28;26.90;49.50
20432;DHT22;10375;49.136;10.366;2023-06-14T10:06:56;26.60;48.50
20432;DHT22;10375;49.136;10.366;2023-06-14T10:09:23;26.40;49.50
20432;DHT22;10375;49.136;10.366;2023-06-14T10:11:51;25.50;49.00
20432;DHT22;10375;49.136;10.366;2023-06-14T10:14:18;24.90;51.70
20432;DHT22;10375;49.136;10.366;2023-06-14T10:17:00;24.70;52.00
20432;DHT22;10375;49.136;10.366;2023-06-14T10:19:57;25.20;52.90
20432;DHT22;10375;49.136;10.366;2023-06-14T10:22:58;25.90;49.70
20432;DHT22;10375;49.136;10.366;2023-06-14T10:25:30;26.90;47.30
20432;DHT22;10375;49.136;10.366;2023-06-14T10:28:18;27.40;47.40
20432;DHT22;10375;49.136;10.366;2023-06-14T10:31:09;27.30;48.10
20432;DHT22;10375;49.136;10.366;2023-06-14T10:33:50;26.90;46.10
20432;DHT22;10375;49.136;10.366;2023-06-14T10:36:30;26.30;47.80
20432;DHT22;10375;49.136;10.366;2023-06-14T10:38:59;25.60;48.70
20432;DHT22;10375;49.136;10.366;2023-06-14T10:41:27;25.40;48.90
20432;DHT22;10375;49.136;10.366;2023-06-14T10:46:46;25.10;50.90
20432;DHT22;10375;49.136;10.366;2023-06-14T10:49:16;25.90;47.90
20432;DHT22;10375;49.136;10.366;2023-06-14T10:51:50;26.20;48.50
20432;DHT22;10375;49.136;10.366;2023-06-14T10:54:22;26.10;48.80
20432;DHT22;10375;49.136;10.366;2023-06-14T10:56:52;25.40;49.10
20432;DHT22;10375;49.136;10.366;2023-06-14T10:59:21;24.80;48.70
20432;DHT22;10375;49.136;10.366;2023-06-14T11:04:20;24.20;50.80
20432;DHT22;10375;49.136;10.366;2023-06-14T11:06:49;24.20;51.70
20432;DHT22;10375;49.136;10.366;2023-06-14T11:12:00;24.30;50.50
20432;DHT22;10375;49.136;10.366;2023-06-14T11:14:31;24.20;52.10
20432;DHT22;10375;49.136;10.366;2023-06-14T11:16:58;24.20;52.10
20432;DHT22;10375;49.136;10.366;2023-06-14T11:19:26;23.80;53.40
20432;DHT22;10375;49.136;10.366;2023-06-14T11:21:55;23.70;53.40
20432;DHT22;10375;49.136;10.366;2023-06-14T11:24:22;23.20;53.80
20432;DHT22;10375;49.136;10.366;2023-06-14T11:26:49;23.00;53.70
20432;DHT22;10375;49.136;10.366;2023-06-14T11:29:16;23.30;52.70
20432;DHT22;10375;49.136;10.366;2023-06-14T11:31:46;23.20;52.30
20432;DHT22;10375;49.136;10.366;2023-06-14T11:34:14;23.40;52.50
20432;DHT22;10375;49.136;10.366;2023-06-14T11:36:41;23.40;53.20
20432;DHT22;10375;49.136;10.366;2023-06-14T11:39:09;23.20;52.80
20432;DHT22;10375;49.136;10.366;2023-06-14T11:41:46;24.10;54.00
20432;DHT22;10375;49.136;10.366;2023-06-14T11:44:13;24.60;51.60
20432;DHT22;10375;49.136;10.366;2023-06-14T11:46:40;24.40;52.00
20432;DHT22;10375;49.136;10.366;2023-06-14T11:49:08;24.80;51.00
20432;DHT22;10375;49.136;10.366;2023-06-14T11:51:36;24.50;50.40
20432;DHT22;10375;49.136;10.366;2023-06-14T11:54:05;24.50;50.80
20432;DHT22;10375;49.136;10.366;2023-06-14T11:56:33;24.40;50.20
20432;DHT22;10375;49.136;10.366;2023-06-14T11:59:02;24.20;51.30
20432;DHT22;10375;49.136;10.366;2023-06-14T12:01:30;24.00;52.90
20432;DHT22;10375;49.136;10.366;2023-06-14T12:03:59;23.70;52.70
20432;DHT22;10375;49.136;10.366;2023-06-14T12:06:29;23.60;53.30
20432;DHT22;10375;49.136;10.366;2023-06-14T12:09:02;23.40;52.40
20432;DHT22;10375;49.136;10.366;2023-06-14T12:11:35;23.40;53.90
20432;DHT22;10375;49.136;10.366;2023-06-14T12:14:05;23.40;54.90
20432;DHT22;10375;49.136;10.366;2023-06-14T12:16:36;23.50;52.50
20432;DHT22;10375;49.136;10.366;2023-06-14T12:19:15;23.70;52.20
20432;DHT22;10375;49.136;10.366;2023-06-14T12:21:46;23.80;50.70
20432;DHT22;10375;49.136;10.366;2023-06-14T12:24:16;24.20;52.00
20432;DHT22;10375;49.136;10.366;2023-06-14T12:26:43;24.70;50.90
20432;DHT22;10375;49.136;10.366;2023-06-14T12:29:11;25.80;50.00
20432;DHT22;10375;49.136;10.366;2023-06-14T12:31:40;26.00;47.50
20432;DHT22;10375;49.136;10.366;2023-06-14T12:34:07;26.10;47.40
20432;DHT22;10375;49.136;10.366;2023-06-14T12:36:35;26.30;48.60
20432;DHT22;10375;49.136;10.366;2023-06-14T12:39:08;26.20;50.60
20432;DHT22;10375;49.136;10.366;2023-06-14T12:41:35;25.40;49.80
20432;DHT22;10375;49.136;10.366;2023-06-14T12:44:03;25.10;51.40
20432;DHT22;10375;49.136;10.366;2023-06-14T12:46:31;24.90;50.40
20432;DHT22;10375;49.136;10.366;2023-06-14T12:48:59;24.80;53.20
20432;DHT22;10375;49.136;10.366;2023-06-14T12:51:26;24.70;52.70
20432;DHT22;10375;49.136;10.366;2023-06-14T12:53:53;24.90;53.20
20432;DHT22;10375;49.136;10.366;2023-06-14T12:56:21;24.90;52.60
20432;DHT22;10375;49.136;10.366;2023-06-14T12:58:50;24.50;52.30
20432;DHT22;10375;49.136;10.366;2023-06-14T13:01:18;24.30;54.40
20432;DHT22;10375;49.136;10.366;2023-06-14T13:03:48;24.30;54.70
20432;DHT22;10375;49.136;10.366;2023-06-14T13:06:17;24.60;53.40
20432;DHT22;10375;49.136;10.366;2023-06-14T13:08:45;24.60;52.80
20432;DHT22;10375;49.136;10.366;2023-06-14T13:11:12;24.70;54.40
20432;DHT22;10375;49.136;10.366;2023-06-14T13:13:39;25.30;52.40
20432;DHT22;10375;49.136;10.366;2023-06-14T13:16:06;25.60;51.20
20432;DHT22;10375;49.136;10.366;2023-06-14T13:18:33;25.30;52.10
20432;DHT22;10375;49.136;10.366;2023-06-14T13:21:01;25.10;51.40
20432;DHT22;10375;49.136;10.366;2023-06-14T13:23:28;24.80;52.10
20432;DHT22;10375;49.136;10.366;2023-06-14T13:25:55;24.80;51.60
20432;DHT22;10375;49.136;10.366;2023-06-14T13:28:22;25.10;52.80
20432;DHT22;10375;49.136;10.366;2023-06-14T13:30:49;25.10;51.30
20432;DHT22;10375;49.136;10.366;2023-06-14T13:33:16;25.10;51.90
20432;DHT22;10375;49.136;10.366;2023-06-14T13:35:44;25.40;50.90
20432;DHT22;10375;49.136;10.366;2023-06-14T13:38:11;25.60;50.70
20432;DHT22;10375;49.136;10.366;2023-06-14T13:40:38;25.80;50.50
20432;DHT22;10375;49.136;10.366;2023-06-14T13:43:05;26.00;49.50
20432;DHT22;10375;49.136;10.366;2023-06-14T13:45:32;26.20;49.50
20432;DHT22;10375;49.136;10.366;2023-06-14T13:47:59;26.10;49.20
20432;DHT22;10375;49.136;10.366;2023-06-14T13:50:27;26.10;48.40
20432;DHT22;10375;49.136;10.366;2023-06-14T13:52:54;26.30;49.40
20432;DHT22;10375;49.136;10.366;2023-06-14T13:55:21;26.50;49.00
20432;DHT22;10375;49.136;10.366;2023-06-14T13:57:49;26.80;48.10
20432;DHT22;10375;49.136;10.366;2023-06-14T14:00:16;27.30;46.40
20432;DHT22;10375;49.136;10.366;2023-06-14T14:02:47;27.40;46.00
20432;DHT22;10375;49.136;10.366;2023-06-14T14:05:17;27.70;47.10
20432;DHT22;10375;49.136;10.366;2023-06-14T14:07:44;28.00;46.90
20432;DHT22;10375;49.136;10.366;2023-06-14T14:10:11;27.70;47.00
20432;DHT22;10375;49.136;10.366;2023-06-14T14:12:40;27.10;48.30
20432;DHT22;10375;49.136;10.366;2023-06-14T14:15:08;26.70;49.20
20432;DHT22;10375;49.136;10.366;2023-06-14T14:17:40;26.30;48.20
20432;DHT22;10375;49.136;10.366;2023-06-14T14:20:08;26.10;49.50
20432;DHT22;10375;49.136;10.366;2023-06-14T14:22:36;25.90;50.50
20432;DHT22;10375;49.136;10.366;2023-06-14T14:25:03;25.00;50.50
20432;DHT22;10375;49.136;10.366;2023-06-14T14:27:30;24.70;52.90
20432;DHT22;10375;49.136;10.366;2023-06-14T14:29:57;24.40;52.10
20432;DHT22;10375;49.136;10.366;2023-06-14T14:32:24;24.00;52.80
20432;DHT22;10375;49.136;10.366;2023-06-14T14:34:51;23.80;53.20
20432;DHT22;10375;49.136;10.366;2023-06-14T14:37:18;23.70;54.00
20432;DHT22;10375;49.136;10.366;2023-06-14T14:39:46;23.80;54.40
20432;DHT22;10375;49.136;10.366;2023-06-14T14:42:13;24.00;54.20
20432;DHT22;10375;49.136;10.366;2023-06-14T14:44:40;24.20;53.90
20432;DHT22;10375;49.136;10.366;2023-06-14T14:47:07;24.20;53.30
20432;DHT22;10375;49.136;10.366;2023-06-14T14:49:34;24.20;52.60
20432;DHT22;10375;49.136;10.366;2023-06-14T14:52:01;24.30;51.60
20432;DHT22;10375;49.136;10.366;2023-06-14T14:54:48;24.30;51.60
20432;DHT22;10375;49.136;10.366;2023-06-14T14:57:15;24.30;51.90
20432;DHT22;10375;49.136;10.366;2023-06-14T14:59:42;24.20;51.70
20432;DHT22;10375;49.136;10.366;2023-06-14T15:02:09;24.20;53.70
20432;DHT22;10375;49.136;10.366;2023-06-14T15:04:37;24.20;51.30
20432;DHT22;10375;49.136;10.366;2023-06-14T15:07:04;24.20;52.20
20432;DHT22;10375;49.136;10.366;2023-06-14T15:09:33;24.20;51.70
20432;DHT22;10375;49.136;10.366;2023-06-14T15:12:00;24.20;53.10
20432;DHT22;10375;49.136;10.366;2023-06-14T15:14:27;24.20;52.60
20432;DHT22;10375;49.136;10.366;2023-06-14T15:16:54;24.30;52.50
20432;DHT22;10375;49.136;10.366;2023-06-14T15:19:21;24.40;53.50
20432;DHT22;10375;49.136;10.366;2023-06-14T15:21:49;24.40;51.80
20432;DHT22;10375;49.136;10.366;2023-06-14T15:24:16;24.20;52.10
20432;DHT22;10375;49.136;10.366;2023-06-14T15:26:56;24.20;51.40
20432;DHT22;10375;49.136;10.366;2023-06-14T15:29:23;24.20;51.50
20432;DHT22;10375;49.136;10.366;2023-06-14T15:31:50;24.20;52.20
20432;DHT22;10375;49.136;10.366;2023-06-14T15:34:17;24.00;52.50